sim
Sign-in with your pilot id or email,
or register
Callsign
Passwort

Schedule Details

Flight Number: DLH2386 (2)
Departure: Munich Airport (EDDM) at 14:15
Arrival: Geneva International Airport (LSGG) at 15:30
Route: Lufthansa Passenger Schedule. Enter filed route here before submitting Pirep.

Weather Information
Getting current METAR information for EDDM 231320Z 23006KT 9000 -SHRA SCT015 SCT020CB BKN043 17/15 Q1010 RESHRA NOSIG
Getting current METAR information for LSGG 231320Z 23009KT 190V260 9999 FEW040 SCT095 23/12 Q1010 NOSIG

Schedule Frequency

Route Map